| time (UTC) | temp F | wind direction | speed knots | gust knots | rain 1hr in | rain 24hr in | rain mn in | humidity % | barometer mb |
| 20260507213012 | 60 | 300 | 7.8 | 0.0 | 0.00 | 0.00 | 0.49 | 35 | 1002.0 |
| 20260507212447 | 60 | 320 | 10.4 | 0.0 | 0.00 | 0.00 | 0.49 | 40 | 1002.0 |
| 20260507211951 | 60 | 311 | 9.6 | 0.0 | 0.00 | 0.00 | 0.49 | 42 | 1002.0 |
| 20260507211516 | 60 | 296 | 7.8 | 0.0 | 0.00 | 0.00 | 0.49 | 42 | 1002.0 |
| 20260507210955 | 61 | 306 | 7.8 | 0.0 | 0.00 | 0.00 | 0.49 | 37 | 1001.9 |
| 20260507205522 | 61 | 293 | 2.6 | 0.0 | 0.00 | 0.00 | 0.49 | 45 | 1001.9 |
| 20260507205005 | 60 | 105 | 0.0 | 0.0 | 0.00 | 0.00 | 0.49 | 44 | 1001.9 |
| 20260507204453 | 60 | 105 | 0.0 | 0.0 | 0.00 | 0.00 | 0.49 | 45 | 1001.9 |
| 20260507203945 | 60 | 105 | 0.0 | 0.0 | 0.00 | 0.00 | 0.49 | 41 | 1001.9 |
| 20260507203528 | 60 | 105 | 0.0 | 0.0 | 0.00 | 0.00 | 0.49 | 41 | 1001.9 |
| 20260507202451 | 60 | 105 | 0.9 | 0.0 | 0.00 | 0.00 | 0.49 | 44 | 1001.9 |
| 20260507202046 | 59 | 105 | 4.3 | 0.0 | 0.00 | 0.00 | 0.49 | 45 | 1001.9 |
| 20260507201501 | 60 | 296 | 8.7 | 0.0 | 0.00 | 0.00 | 0.49 | 34 | 1001.9 |
| 20260507200943 | 60 | 297 | 9.6 | 0.0 | 0.00 | 0.00 | 0.49 | 38 | 1002.0 |
| 20260507200524 | 57 | 296 | 10.4 | 0.0 | 0.00 | 0.00 | 0.49 | 44 | 1001.9 |
| 20260507195503 | 58 | 299 | 13.9 | 0.0 | 0.00 | 0.00 | 0.49 | 41 | 1002.0 |
| 20260507195023 | 58 | 318 | 12.2 | 0.0 | 0.00 | 0.00 | 0.49 | 42 | 1002.0 |
| 20260507194006 | 58 | 290 | 9.6 | 0.0 | 0.00 | 0.00 | 0.49 | 43 | 1002.1 |
| 20260507193451 | 59 | 232 | 9.6 | 0.0 | 0.00 | 0.00 | 0.49 | 42 | 1002.1 |
| 20260507193046 | 58 | 301 | 11.3 | 0.0 | 0.00 | 0.00 | 0.49 | 49 | 1002.1 |
| 20260507192009 | 59 | 315 | 7.8 | 0.0 | 0.00 | 0.00 | 0.49 | 44 | 1002.3 |
| 20260507191451 | 61 | 254 | 7.0 | 0.0 | 0.00 | 0.00 | 0.49 | 40 | 1002.3 |
| 20260507191023 | 61 | 277 | 5.2 | 0.0 | 0.00 | 0.00 | 0.49 | 38 | 1002.4 |
| 20260507190434 | 60 | 290 | 2.6 | 0.0 | 0.00 | 0.00 | 0.49 | 42 | 1002.4 |
| 20260507190014 | 60 | 105 | 0.0 | 0.0 | 0.00 | 0.00 | 0.49 | 49 | 1002.4 |
| 20260507185449 | 60 | 105 | 0.0 | 0.0 | 0.00 | 0.00 | 0.49 | 45 | 1002.5 |
| 20260507185004 | 60 | 105 | 0.0 | 0.0 | 0.00 | 0.00 | 0.49 | 46 | 1002.5 |
| 20260507184450 | 60 | 105 | 0.0 | 0.0 | 0.00 | 0.00 | 0.49 | 47 | 1002.5 |
| 20260507183015 | 59 | 105 | 0.0 | 0.0 | 0.00 | 0.00 | 0.49 | 50 | 1002.6 |
| 20260507182452 | 59 | 105 | 0.0 | 0.0 | 0.00 | 0.00 | 0.49 | 41 | 1002.9 |
| 20260507182014 | 59 | 105 | 0.0 | 0.0 | 0.00 | 0.00 | 0.49 | 48 | 1002.9 |
| 20260507181440 | 60 | 105 | 0.0 | 0.0 | 0.00 | 0.00 | 0.49 | 45 | 1002.9 |
| 20260507181021 | 59 | 105 | 0.0 | 0.0 | 0.00 | 0.00 | 0.49 | 48 | 1003.0 |
| 20260507175455 | 60 | 289 | 5.2 | 0.0 | 0.00 | 0.00 | 0.49 | 45 | 1002.9 |
| 20260507175019 | 59 | 262 | 7.0 | 0.0 | 0.00 | 0.00 | 0.49 | 46 | 1002.9 |
| 20260507172950 | 61 | 261 | 7.0 | 0.0 | 0.00 | 0.00 | 0.49 | 45 | 1002.9 |
| 20260507172530 | 60 | 288 | 7.0 | 0.0 | 0.00 | 0.00 | 0.49 | 49 | 1003.0 |
| 20260507171951 | 61 | 261 | 6.1 | 0.0 | 0.00 | 0.00 | 0.49 | 47 | 1003.0 |
| 20260507171441 | 61 | 287 | 4.3 | 0.0 | 0.00 | 0.00 | 0.49 | 49 | 1003.0 |
| 20260507171001 | 62 | 255 | 5.2 | 0.0 | 0.00 | 0.00 | 0.49 | 49 | 1003.0 |
| 20260507170452 | 61 | 218 | 6.1 | 0.0 | 0.00 | 0.00 | 0.49 | 49 | 1003.0 |
| 20260507165941 | 61 | 215 | 5.2 | 0.0 | 0.00 | 0.00 | 0.49 | 49 | 1003.0 |
| 20260507165017 | 57 | 186 | 4.3 | 0.0 | 0.00 | 0.00 | 0.49 | 59 | 1003.3 |
| 20260507164522 | 57 | 284 | 3.5 | 0.0 | 0.00 | 0.00 | 0.49 | 58 | 1003.3 |
| 20260507163952 | 57 | 321 | 5.2 | 0.0 | 0.00 | 0.00 | 0.49 | 59 | 1003.5 |
| 20260507163532 | 57 | 337 | 5.2 | 0.0 | 0.00 | 0.00 | 0.49 | 58 | 1003.5 |
| 20260507162958 | 58 | 255 | 5.2 | 0.0 | 0.00 | 0.00 | 0.49 | 54 | 1003.5 |
| 20260507162528 | 59 | 287 | 4.3 | 0.0 | 0.00 | 0.00 | 0.49 | 53 | 1003.6 |
| 20260507161500 | 58 | 63 | 3.5 | 0.0 | 0.00 | 0.00 | 0.49 | 57 | 1003.6 |
| 20260507160938 | 58 | 34 | 2.6 | 0.0 | 0.00 | 0.00 | 0.49 | 59 | 1003.9 |
| 20260507160518 | 58 | 106 | 2.6 | 0.0 | 0.00 | 0.00 | 0.49 | 56 | 1003.9 |
| 20260507160012 | 59 | 348 | 1.7 | 0.0 | 0.00 | 0.00 | 0.49 | 53 | 1003.9 |
| 20260507155010 | 58 | 285 | 1.7 | 0.0 | 0.00 | 0.00 | 0.49 | 52 | 1004.0 |
| 20260507154447 | 58 | 244 | 0.9 | 0.0 | 0.00 | 0.00 | 0.49 | 54 | 1004.0 |
| 20260507154028 | 58 | 219 | 1.7 | 0.0 | 0.00 | 0.00 | 0.49 | 54 | 1004.1 |
| 20260507153455 | 58 | 333 | 1.7 | 0.0 | 0.00 | 0.00 | 0.49 | 51 | 1004.1 |
| 20260507153043 | 58 | 289 | 2.6 | 0.0 | 0.00 | 0.00 | 0.49 | 50 | 1004.1 |
| 20260507152505 | 58 | 285 | 1.7 | 0.0 | 0.00 | 0.00 | 0.49 | 53 | 1004.3 |
| 20260507151958 | 58 | 312 | 0.9 | 0.0 | 0.00 | 0.00 | 0.49 | 55 | 1004.3 |
| 20260507151546 | 57 | 121 | 1.7 | 0.0 | 0.00 | 0.00 | 0.49 | 54 | 1004.3 |
| 20260507151003 | 56 | 22 | 0.9 | 0.0 | 0.00 | 0.00 | 0.49 | 56 | 1004.5 |
| 20260507150453 | 56 | 67 | 0.0 | 0.0 | 0.00 | 0.00 | 0.49 | 59 | 1004.5 |
| 20260507150020 | 57 | 105 | 0.9 | 0.0 | 0.00 | 0.00 | 0.49 | 59 | 1004.5 |
| 20260507145509 | 54 | 11 | 1.7 | 0.0 | 0.00 | 0.00 | 0.49 | 61 | 1004.5 |
| 20260507144954 | 55 | 26 | 1.7 | 0.0 | 0.00 | 0.00 | 0.49 | 62 | 1004.5 |
| 20260507144436 | 55 | 25 | 0.9 | 0.0 | 0.00 | 0.00 | 0.49 | 64 | 1004.5 |
| 20260507144005 | 55 | 17 | 0.9 | 0.0 | 0.00 | 0.00 | 0.49 | 69 | 1004.6 |
| 20260507143438 | 54 | 353 | 0.9 | 0.0 | 0.00 | 0.00 | 0.49 | 71 | 1004.6 |
| 20260507143014 | 54 | 3 | 1.7 | 0.0 | 0.00 | 0.00 | 0.49 | 71 | 1004.6 |
| 20260507142500 | 54 | 19 | 0.9 | 0.0 | 0.00 | 0.00 | 0.49 | 70 | 1004.6 |
| 20260507142027 | 53 | 360 | 0.9 | 0.0 | 0.00 | 0.00 | 0.49 | 70 | 1004.6 |
| 20260507141508 | 53 | 350 | 1.7 | 0.0 | 0.00 | 0.00 | 0.49 | 70 | 1004.6 |
| 20260507140948 | 53 | 318 | 2.6 | 0.0 | 0.00 | 0.00 | 0.49 | 71 | 1004.6 |
| 20260507140437 | 52 | 346 | 3.5 | 0.0 | 0.00 | 0.00 | 0.49 | 72 | 1004.6 |
| 20260507140014 | 52 | 332 | 4.3 | 0.0 | 0.00 | 0.00 | 0.49 | 72 | 1004.6 |
| 20260507135452 | 51 | 348 | 3.5 | 0.0 | 0.00 | 0.00 | 0.49 | 74 | 1004.6 |
| 20260507134944 | 52 | 339 | 2.6 | 0.0 | 0.00 | 0.00 | 0.49 | 77 | 1004.6 |
| 20260507134538 | 52 | 339 | 2.6 | 0.0 | 0.00 | 0.00 | 0.49 | 77 | 1004.6 |
| 20260507133959 | 52 | 325 | 4.3 | 0.0 | 0.00 | 0.00 | 0.49 | 77 | 1004.6 |
| 20260507133444 | 51 | 348 | 5.2 | 0.0 | 0.00 | 0.00 | 0.49 | 77 | 1004.6 |
| 20260507133027 | 51 | 332 | 6.1 | 0.0 | 0.00 | 0.00 | 0.49 | 78 | 1004.6 |
| 20260507132449 | 51 | 336 | 6.1 | 0.0 | 0.00 | 0.00 | 0.49 | 77 | 1004.6 |
| 20260507131932 | 51 | 317 | 7.8 | 0.0 | 0.00 | 0.00 | 0.49 | 78 | 1004.6 |
| 20260507131503 | 51 | 296 | 8.7 | 0.0 | 0.00 | 0.00 | 0.49 | 78 | 1004.6 |
| 20260507130947 | 51 | 320 | 9.6 | 0.0 | 0.00 | 0.00 | 0.49 | 77 | 1004.8 |
| 20260507130523 | 51 | 303 | 9.6 | 0.0 | 0.00 | 0.00 | 0.49 | 77 | 1004.8 |
| 20260507130018 | 50 | 315 | 8.7 | 0.0 | 0.00 | 0.00 | 0.49 | 78 | 1004.8 |
| 20260507125503 | 50 | 291 | 7.8 | 0.0 | 0.00 | 0.00 | 0.49 | 79 | 1004.9 |
| 20260507124944 | 50 | 317 | 7.8 | 0.0 | 0.00 | 0.00 | 0.49 | 79 | 1004.9 |
| 20260507124502 | 50 | 305 | 7.0 | 0.0 | 0.00 | 0.00 | 0.49 | 79 | 1004.9 |
| 20260507123938 | 50 | 299 | 7.8 | 0.0 | 0.00 | 0.00 | 0.49 | 79 | 1005.1 |
| 20260507123523 | 50 | 302 | 7.8 | 0.0 | 0.00 | 0.00 | 0.49 | 79 | 1005.1 |
| 20260507122955 | 50 | 292 | 8.7 | 0.0 | 0.00 | 0.00 | 0.49 | 80 | 1005.1 |
| 20260507122516 | 50 | 296 | 9.6 | 0.0 | 0.00 | 0.00 | 0.49 | 78 | 1004.6 |
| 20260507122002 | 49 | 316 | 9.6 | 0.0 | 0.00 | 0.00 | 0.49 | 78 | 1004.6 |
| 20260507121526 | 49 | 258 | 8.7 | 0.0 | 0.00 | 0.00 | 0.49 | 78 | 1004.6 |
| 20260507120932 | 49 | 313 | 7.8 | 0.0 | 0.00 | 0.00 | 0.49 | 79 | 1004.5 |
| 20260507120506 | 49 | 325 | 7.8 | 0.0 | 0.00 | 0.00 | 0.49 | 79 | 1004.5 |
| 20260507114500 | 49 | 294 | 6.1 | 0.0 | 0.00 | 0.00 | 0.49 | 79 | 1004.6 |
| 20260507113942 | 49 | 294 | 6.1 | 0.0 | 0.00 | 0.00 | 0.49 | 80 | 1004.5 |
| 20260507113529 | 49 | 305 | 5.2 | 0.0 | 0.00 | 0.00 | 0.49 | 80 | 1004.5 |
| 20260507113005 | 49 | 278 | 5.2 | 0.0 | 0.00 | 0.00 | 0.49 | 80 | 1004.5 |
| 20260507112514 | 49 | 278 | 7.0 | 0.0 | 0.00 | 0.00 | 0.49 | 80 | 1004.4 |
| 20260507111506 | 49 | 302 | 6.1 | 0.0 | 0.00 | 0.00 | 0.49 | 80 | 1004.4 |
| 20260507110957 | 49 | 304 | 3.5 | 0.0 | 0.00 | 0.00 | 0.49 | 81 | 1004.2 |
| 20260507110435 | 49 | 291 | 4.3 | 0.0 | 0.00 | 0.00 | 0.49 | 82 | 1004.2 |
| 20260507110023 | 49 | 287 | 7.0 | 0.0 | 0.00 | 0.00 | 0.49 | 81 | 1004.2 |
| 20260507105457 | 48 | 305 | 6.1 | 0.0 | 0.00 | 0.00 | 0.49 | 82 | 1004.4 |
| 20260507104934 | 49 | 299 | 6.1 | 0.0 | 0.00 | 0.00 | 0.48 | 82 | 1004.4 |
| 20260507104518 | 48 | 305 | 5.2 | 0.0 | 0.00 | 0.00 | 0.48 | 82 | 1004.4 |
| 20260507103934 | 48 | 293 | 4.3 | 0.0 | 0.00 | 0.00 | 0.45 | 83 | 1004.8 |
| 20260507103511 | 49 | 296 | 6.1 | 0.0 | 0.00 | 0.00 | 0.44 | 83 | 1004.8 |
| 20260507103030 | 49 | 272 | 6.1 | 0.0 | 0.00 | 0.00 | 0.13 | 81 | 1004.8 |
| 20260507102513 | 49 | 280 | 8.7 | 0.0 | 0.00 | 0.00 | 0.13 | 79 | 1004.5 |
| 20260507102025 | 49 | 266 | 11.3 | 0.0 | 0.00 | 0.00 | 0.11 | 79 | 1004.5 |
| 20260507101518 | 49 | 325 | 13.0 | 0.0 | 0.00 | 0.00 | 0.11 | 79 | 1004.5 |
| 20260507101007 | 49 | 325 | 11.3 | 0.0 | 0.00 | 0.00 | 0.11 | 78 | 1004.2 |
| 20260507100445 | 49 | 308 | 13.0 | 0.0 | 0.00 | 0.00 | 0.11 | 78 | 1004.2 |
| 20260507095936 | 49 | 318 | 14.8 | 0.0 | 0.00 | 0.00 | 0.11 | 79 | 1004.2 |
| 20260507095523 | 49 | 327 | 15.6 | 0.0 | 0.00 | 0.00 | 0.11 | 78 | 1004.2 |
| 20260507095001 | 49 | 325 | 13.0 | 0.0 | 0.00 | 0.00 | 0.11 | 79 | 1004.2 |
| 20260507094451 | 49 | 332 | 12.2 | 0.0 | 0.00 | 0.00 | 0.11 | 79 | 1004.2 |
| 20260507094048 | 49 | 302 | 11.3 | 0.0 | 0.00 | 0.00 | 0.11 | 80 | 1004.0 |
| 20260507093522 | 49 | 303 | 7.8 | 0.0 | 0.00 | 0.00 | 0.11 | 81 | 1004.0 |
| 20260507092933 | 50 | 299 | 8.7 | 0.0 | 0.00 | 0.00 | 0.11 | 83 | 1004.1 |
| 20260507092511 | 50 | 263 | 10.4 | 0.0 | 0.00 | 0.00 | 0.11 | 83 | 1003.5 |
| 20260507092012 | 50 | 322 | 11.3 | 0.0 | 0.00 | 0.00 | 0.11 | 82 | 1003.5 |
| 20260507091453 | 50 | 277 | 12.2 | 0.0 | 0.00 | 0.00 | 0.10 | 84 | 1003.5 |
| 20260507090944 | 50 | 294 | 11.3 | 0.0 | 0.00 | 0.00 | 0.10 | 85 | 1003.6 |
| 20260507090527 | 50 | 309 | 6.1 | 0.0 | 0.00 | 0.00 | 0.09 | 85 | 1003.6 |
| 20260507090014 | 50 | 318 | 0.0 | 0.0 | 0.00 | 0.00 | 0.09 | 88 | 1003.6 |
| 20260507085503 | 50 | 105 | 0.0 | 0.0 | 0.00 | 0.00 | 0.09 | 89 | 1003.9 |
| 20260507085020 | 51 | 105 | 0.0 | 0.0 | 0.00 | 0.00 | 0.08 | 89 | 1003.9 |
| 20260507084457 | 51 | 105 | 0.0 | 0.0 | 0.00 | 0.00 | 0.07 | 90 | 1003.9 |
| 20260507083937 | 51 | 105 | 0.0 | 0.0 | 0.00 | 0.00 | 0.07 | 90 | 1003.5 |
| 20260507083522 | 51 | 105 | 0.0 | 0.0 | 0.00 | 0.00 | 0.06 | 90 | 1003.5 |
| 20260507083000 | 51 | 105 | 0.0 | 0.0 | 0.00 | 0.00 | 0.05 | 89 | 1003.5 |
| 20260507082444 | 51 | 105 | 0.0 | 0.0 | 0.00 | 0.00 | 0.04 | 89 | 1003.9 |
| 20260507082025 | 51 | 105 | 0.0 | 0.0 | 0.00 | 0.00 | 0.04 | 89 | 1003.9 |
| 20260507081453 | 51 | 105 | 0.0 | 0.0 | 0.00 | 0.00 | 0.03 | 88 | 1003.9 |
| 20260507081029 | 51 | 105 | 0.0 | 0.0 | 0.00 | 0.00 | 0.03 | 88 | 1003.5 |
| 20260507080453 | 51 | 105 | 0.0 | 0.0 | 0.00 | 0.00 | 0.03 | 87 | 1003.5 |
| 20260507075930 | 51 | 105 | 0.0 | 0.0 | 0.00 | 0.00 | 0.02 | 87 | 1003.5 |
| 20260507075507 | 51 | 105 | 0.0 | 0.0 | 0.00 | 0.00 | 0.01 | 86 | 1003.3 |
| 20260507074934 | 52 | 105 | 0.0 | 0.0 | 0.00 | 0.00 | 0.00 | 84 | 1003.3 |
| 20260507074529 | 52 | 105 | 0.0 | 0.0 | 0.00 | 0.00 | 0.00 | 83 | 1003.3 |
| 20260507074010 | 52 | 105 | 0.0 | 0.0 | 0.00 | 0.00 | 0.00 | 86 | 1002.9 |
| 20260507073450 | 52 | 105 | 0.0 | 0.0 | 0.00 | 0.00 | 0.00 | 86 | 1002.9 |
| 20260507073021 | 52 | 105 | 0.0 | 0.0 | 0.00 | 0.00 | 0.00 | 86 | 1002.9 |
| 20260507072017 | 53 | 105 | 0.0 | 0.0 | 0.00 | 0.00 | 0.00 | 86 | 1002.6 |
| 20260507071438 | 53 | 105 | 0.0 | 0.0 | 0.00 | 0.00 | 0.00 | 88 | 1002.6 |
| 20260507071006 | 53 | 105 | 0.0 | 0.0 | 0.00 | 0.00 | 0.00 | 87 | 1002.6 |
| 20260507070528 | 53 | 105 | 0.0 | 0.0 | 0.00 | 0.00 | 0.00 | 87 | 1002.6 |
| 20260507065958 | 54 | 105 | 0.0 | 0.0 | 0.00 | 0.00 | 0.00 | 87 | 1002.6 |
| 20260507065527 | 54 | 105 | 0.0 | 0.0 | 0.00 | 0.00 | 0.00 | 86 | 1002.9 |
| 20260507065027 | 54 | 105 | 0.0 | 0.0 | 0.00 | 0.00 | 0.00 | 86 | 1002.9 |
| 20260507064452 | 53 | 105 | 0.0 | 0.0 | 0.00 | 0.00 | 0.00 | 87 | 1002.9 |
| 20260507064048 | 53 | 105 | 0.0 | 0.0 | 0.00 | 0.00 | 0.00 | 87 | 1002.5 |
| 20260507062958 | 54 | 105 | 0.9 | 0.0 | 0.00 | 0.00 | 0.00 | 87 | 1002.5 |
| 20260507062444 | 54 | 105 | 4.3 | 0.0 | 0.00 | 0.00 | 0.00 | 87 | 1002.7 |
| 20260507061932 | 55 | 303 | 6.1 | 0.0 | 0.00 | 0.00 | 0.00 | 84 | 1002.7 |
| 20260507061516 | 55 | 298 | 3.5 | 0.0 | 0.00 | 0.00 | 0.00 | 86 | 1002.7 |
| 20260507061026 | 55 | 303 | 1.7 | 0.0 | 0.00 | 0.00 | 0.00 | 85 | 1002.9 |
| 20260507060436 | 55 | 105 | 0.0 | 0.0 | 0.00 | 0.00 | 0.00 | 89 | 1002.9 |
| 20260507055949 | 55 | 105 | 0.0 | 0.0 | 0.00 | 0.00 | 0.00 | 89 | 1002.9 |
| 20260507055432 | 55 | 105 | 0.0 | 0.0 | 0.00 | 0.00 | 0.00 | 89 | 1003.0 |
| 20260507054938 | 55 | 105 | 0.0 | 0.0 | 0.00 | 0.00 | 0.00 | 91 | 1003.0 |
| 20260507054441 | 55 | 105 | 0.0 | 0.0 | 0.00 | 0.00 | 0.00 | 88 | 1003.0 |
| 20260507053949 | 56 | 105 | 0.0 | 0.0 | 0.00 | 0.00 | 0.00 | 89 | 1003.0 |
| 20260507053436 | 57 | 105 | 0.0 | 0.0 | 0.00 | 0.00 | 0.00 | 90 | 1003.0 |
| 20260507052946 | 58 | 105 | 0.0 | 0.0 | 0.00 | 0.00 | 0.00 | 91 | 1003.0 |
| 20260507052436 | 58 | 105 | 0.0 | 0.0 | 0.00 | 0.00 | 0.00 | 93 | 1003.0 |
| 20260507051949 | 57 | 105 | 0.0 | 0.0 | 0.00 | 0.00 | 0.00 | 93 | 1003.0 |
| 20260507051433 | 57 | 105 | 0.0 | 0.0 | 0.00 | 0.00 | 0.00 | 93 | 1003.0 |
| 20260507050945 | 58 | 105 | 0.0 | 0.0 | 0.00 | 0.00 | 0.00 | 93 | 1003.0 |
| 20260507050434 | 58 | 105 | 0.0 | 0.0 | 0.00 | 0.00 | 0.00 | 94 | 1003.0 |
| 20260507045940 | 57 | 105 | 0.0 | 0.0 | 0.00 | 0.00 | 0.00 | 94 | 1003.0 |
| 20260507045450 | 56 | 105 | 0.0 | 0.0 | 0.00 | 0.00 | 0.00 | 94 | 1003.0 |
| 20260507044937 | 56 | 105 | 0.0 | 0.0 | 0.00 | 0.00 | 0.00 | 93 | 1003.0 |
| 20260507044442 | 56 | 105 | 0.0 | 0.0 | 0.00 | 0.00 | 0.00 | 92 | 1003.0 |
| 20260507043946 | 57 | 105 | 0.0 | 0.0 | 0.00 | 0.00 | 0.00 | 92 | 1002.6 |
| 20260507043438 | 57 | 105 | 0.0 | 0.0 | 0.00 | 0.00 | 0.00 | 93 | 1002.6 |
| 20260507042932 | 57 | 105 | 0.0 | 0.0 | 0.00 | 0.00 | 0.00 | 93 | 1002.6 |
| 20260507042439 | 57 | 105 | 0.0 | 0.0 | 0.00 | 0.00 | 0.00 | 93 | 1003.0 |
| 20260507041942 | 57 | 105 | 0.0 | 0.0 | 0.00 | 0.00 | 0.00 | 93 | 1003.0 |
| 20260507041448 | 57 | 105 | 0.0 | 0.0 | 0.00 | 0.00 | 0.00 | 93 | 1003.0 |
| 20260507040933 | 57 | 105 | 0.0 | 0.0 | 0.00 | 0.00 | 0.00 | 93 | 1003.1 |
| 20260507040444 | 57 | 105 | 0.0 | 0.0 | 0.00 | 0.00 | 0.00 | 93 | 1003.1 |
| 20260507040052 | 57 | 105 | 0.0 | 0.0 | 0.00 | 0.00 | 0.00 | 93 | 1003.1 |
| 20260507035515 | 57 | 105 | 0.0 | 0.0 | 0.00 | 0.00 | 0.02 | 93 | 1003.0 |
| 20260507034949 | 57 | 105 | 0.0 | 0.0 | 0.00 | 0.00 | 0.02 | 92 | 1003.0 |
| 20260507034439 | 57 | 105 | 5.2 | 0.0 | 0.00 | 0.00 | 0.02 | 92 | 1003.0 |
| 20260507034023 | 57 | 105 | 11.3 | 0.0 | 0.00 | 0.00 | 0.02 | 92 | 1003.0 |
| 20260507033456 | 56 | 227 | 13.9 | 0.0 | 0.00 | 0.00 | 0.02 | 90 | 1003.0 |
| 20260507033038 | 56 | 237 | 14.8 | 0.0 | 0.00 | 0.00 | 0.02 | 90 | 1003.0 |
| 20260507032452 | 56 | 221 | 13.9 | 0.0 | 0.00 | 0.00 | 0.02 | 90 | 1002.8 |
| 20260507032027 | 56 | 220 | 13.9 | 0.0 | 0.00 | 0.00 | 0.02 | 90 | 1002.8 |
| 20260507031453 | 56 | 234 | 7.0 | 0.0 | 0.00 | 0.00 | 0.02 | 89 | 1002.8 |
| 20260507030946 | 56 | 105 | 0.0 | 0.0 | 0.00 | 0.00 | 0.02 | 92 | 1002.5 |
| 20260507030517 | 57 | 105 | 0.0 | 0.0 | 0.00 | 0.00 | 0.02 | 92 | 1002.5 |
| 20260507030000 | 56 | 105 | 0.0 | 0.0 | 0.00 | 0.00 | 0.02 | 92 | 1002.5 |
| 20260507025514 | 56 | 105 | 0.0 | 0.0 | 0.00 | 0.00 | 0.02 | 92 | 1002.7 |
| 20260507024947 | 56 | 105 | 0.0 | 0.0 | 0.00 | 0.00 | 0.02 | 92 | 1002.7 |
| 20260507024518 | 56 | 105 | 0.0 | 0.0 | 0.00 | 0.00 | 0.02 | 92 | 1002.7 |
| 20260507024006 | 56 | 105 | 0.0 | 0.0 | 0.00 | 0.00 | 0.02 | 92 | 1002.5 |
| 20260507023522 | 56 | 105 | 0.0 | 0.0 | 0.00 | 0.00 | 0.02 | 93 | 1002.5 |
| 20260507022950 | 56 | 105 | 0.0 | 0.0 | 0.00 | 0.00 | 0.02 | 93 | 1002.5 |
| 20260507022026 | 56 | 105 | 0.0 | 0.0 | 0.00 | 0.00 | 0.02 | 93 | 1002.6 |
| 20260507021445 | 56 | 105 | 0.0 | 0.0 | 0.00 | 0.00 | 0.02 | 93 | 1002.6 |
| 20260507021018 | 56 | 105 | 0.0 | 0.0 | 0.00 | 0.00 | 0.02 | 93 | 1002.7 |
| 20260507020445 | 56 | 105 | 0.0 | 0.0 | 0.00 | 0.00 | 0.02 | 92 | 1002.7 |
| 20260507015946 | 56 | 105 | 6.1 | 0.0 | 0.00 | 0.00 | 0.02 | 92 | 1002.7 |
| 20260507015506 | 56 | 105 | 12.2 | 0.0 | 0.00 | 0.00 | 0.02 | 90 | 1003.0 |
| 20260507014938 | 56 | 225 | 14.8 | 0.0 | 0.00 | 0.00 | 0.02 | 89 | 1003.0 |
| 20260507014520 | 56 | 230 | 15.6 | 0.0 | 0.00 | 0.00 | 0.02 | 89 | 1003.0 |
| 20260507013955 | 56 | 228 | 17.4 | 0.0 | 0.00 | 0.00 | 0.02 | 89 | 1003.0 |
| 20260507013529 | 56 | 225 | 17.4 | 0.0 | 0.00 | 0.00 | 0.02 | 89 | 1003.0 |
| 20260507012949 | 56 | 223 | 18.2 | 0.0 | 0.00 | 0.00 | 0.02 | 89 | 1003.0 |
| 20260507012515 | 56 | 219 | 19.1 | 0.0 | 0.00 | 0.00 | 0.02 | 89 | 1003.2 |
| 20260507011950 | 56 | 224 | 20.0 | 0.0 | 0.00 | 0.00 | 0.02 | 89 | 1003.2 |
| 20260507011525 | 56 | 210 | 20.0 | 0.0 | 0.00 | 0.00 | 0.02 | 89 | 1003.2 |
| 20260507010955 | 56 | 211 | 19.1 | 0.0 | 0.00 | 0.00 | 0.02 | 89 | 1003.1 |
| 20260507010521 | 56 | 224 | 18.2 | 0.0 | 0.00 | 0.00 | 0.02 | 88 | 1003.1 |
| 20260507005514 | 56 | 232 | 3.5 | 0.0 | 0.00 | 0.00 | 0.02 | 88 | 1003.1 |
| 20260507004954 | 56 | 105 | 0.0 | 0.0 | 0.00 | 0.00 | 0.02 | 91 | 1003.1 |
| 20260507004513 | 56 | 105 | 5.2 | 0.0 | 0.00 | 0.00 | 0.02 | 91 | 1003.1 |
| 20260507003449 | 56 | 217 | 14.8 | 0.0 | 0.00 | 0.00 | 0.02 | 85 | 1003.1 |
| 20260507003049 | 56 | 227 | 13.9 | 0.0 | 0.00 | 0.00 | 0.02 | 85 | 1003.1 |
| 20260507002521 | 56 | 210 | 13.9 | 0.0 | 0.00 | 0.00 | 0.02 | 85 | 1003.1 |
| 20260507001956 | 56 | 216 | 13.9 | 0.0 | 0.00 | 0.00 | 0.02 | 85 | 1003.1 |
| 20260507001433 | 56 | 190 | 14.8 | 0.0 | 0.00 | 0.00 | 0.02 | 84 | 1003.1 |
| 20260507001030 | 56 | 231 | 14.8 | 0.0 | 0.00 | 0.00 | 0.02 | 85 | 1002.9 |
| 20260507000444 | 56 | 211 | 15.6 | 0.0 | 0.00 | 0.00 | 0.02 | 84 | 1002.9 |
| 20260507000003 | 56 | 229 | 14.8 | 0.0 | 0.00 | 0.00 | 0.02 | 84 | 1002.9 |
| 20260506235432 | 56 | 226 | 15.6 | 0.0 | 0.00 | 0.00 | 0.02 | 84 | 1002.7 |
| 20260506235010 | 56 | 234 | 17.4 | 0.0 | 0.00 | 0.00 | 0.02 | 84 | 1002.7 |
| 20260506234459 | 56 | 224 | 18.2 | 0.0 | 0.00 | 0.00 | 0.02 | 84 | 1002.7 |
| 20260506233952 | 56 | 264 | 18.2 | 0.0 | 0.00 | 0.00 | 0.02 | 84 | 1002.7 |
| 20260506233522 | 56 | 227 | 18.2 | 0.0 | 0.00 | 0.00 | 0.02 | 84 | 1002.7 |
| 20260506232954 | 56 | 223 | 18.2 | 0.0 | 0.00 | 0.00 | 0.02 | 84 | 1002.7 |
| 20260506232548 | 56 | 0.0 | 0.0 | 0.00 | 0.00 | 0.02 | 84 | 1003.0 | |
| 20260506232011 | 56 | 228 | 16.5 | 0.0 | 0.00 | 0.00 | 0.02 | 84 | 1003.0 |
| 20260506231448 | 56 | 221 | 15.6 | 0.0 | 0.00 | 0.00 | 0.02 | 84 | 1003.0 |
| 20260506230951 | 56 | 184 | 15.6 | 0.0 | 0.00 | 0.00 | 0.02 | 84 | 1003.1 |
| 20260506230450 | 56 | 211 | 15.6 | 0.0 | 0.00 | 0.00 | 0.02 | 84 | 1003.1 |
| 20260506230017 | 56 | 225 | 14.8 | 0.0 | 0.00 | 0.00 | 0.02 | 85 | 1003.1 |
| 20260506225503 | 56 | 228 | 14.8 | 0.0 | 0.00 | 0.00 | 0.02 | 84 | 1003.2 |
| 20260506224941 | 56 | 202 | 16.5 | 0.0 | 0.00 | 0.00 | 0.02 | 85 | 1003.2 |
| 20260506224510 | 56 | 199 | 16.5 | 0.0 | 0.00 | 0.00 | 0.02 | 85 | 1003.2 |
| 20260506223951 | 56 | 204 | 15.6 | 0.0 | 0.00 | 0.00 | 0.02 | 85 | 1003.5 |
| 20260506223434 | 56 | 190 | 15.6 | 0.0 | 0.00 | 0.00 | 0.02 | 84 | 1003.5 |
| 20260506223020 | 56 | 219 | 15.6 | 0.0 | 0.00 | 0.00 | 0.02 | 84 | 1003.5 |
| 20260506222457 | 57 | 222 | 15.6 | 0.0 | 0.00 | 0.00 | 0.02 | 84 | 1003.6 |
| 20260506221938 | 57 | 245 | 14.8 | 0.0 | 0.00 | 0.00 | 0.02 | 84 | 1003.6 |
| 20260506221504 | 57 | 218 | 14.8 | 0.0 | 0.00 | 0.00 | 0.02 | 84 | 1003.6 |
| 20260506220940 | 57 | 213 | 12.2 | 0.0 | 0.00 | 0.00 | 0.02 | 84 | 1003.7 |
| 20260506220517 | 57 | 198 | 2.6 | 0.0 | 0.00 | 0.00 | 0.02 | 89 | 1003.7 |
| 20260506220002 | 58 | 104 | 0.0 | 0.0 | 0.00 | 0.00 | 0.02 | 89 | 1003.7 |
| 20260506215534 | 58 | 105 | 0.0 | 0.0 | 0.00 | 0.00 | 0.02 | 88 | 1003.7 |
| 20260506214935 | 58 | 105 | 12.2 | 0.0 | 0.00 | 0.00 | 0.02 | 88 | 1003.7 |
| 20260506214503 | 58 | 221 | 18.2 | 0.0 | 0.00 | 0.00 | 0.02 | 85 | 1003.7 |
| 20260506214012 | 57 | 212 | 17.4 | 0.0 | 0.00 | 0.00 | 0.02 | 86 | 1003.8 |